TimePST,TemperatureF,Dew PointF,Humidity,Sea Level PressureIn,VisibilityMPH,Wind Direction,Wind SpeedMPH,Gust SpeedMPH,PrecipitationIn,Events,Conditions,WindDirDegrees,DateUTC
12:16 AM,48.2,48.2,100,30.11,3.0,Calm,Calm,-,N/A,,Clear,0,2012-12-10 08:16:00
12:53 AM,50.0,48.9,96,30.11,4.0,NE,3.5,-,N/A,,Clear,50,2012-12-10 08:53:00
1:53 AM,48.9,46.9,93,30.10,5.0,NE,3.5,-,N/A,,Clear,50,2012-12-10 09:53:00
2:53 AM,50.0,45.0,83,30.09,10.0,Calm,Calm,-,N/A,,Clear,0,2012-12-10 10:53:00
3:53 AM,48.9,44.1,83,30.09,10.0,Calm,Calm,-,N/A,,Clear,0,2012-12-10 11:53:00
4:53 AM,46.0,42.1,86,30.09,10.0,Calm,Calm,-,N/A,,Clear,0,2012-12-10 12:53:00
5:53 AM,46.9,39.0,74,30.10,10.0,ENE,3.5,-,N/A,,Clear,70,2012-12-10 13:53:00
6:53 AM,46.0,36.0,68,30.12,10.0,North,-9999.0,-,N/A,,Clear,0,2012-12-10 14:53:00
7:53 AM,54.0,39.9,59,30.11,10.0,East,4.6,-,N/A,,Clear,90,2012-12-10 15:53:00
8:53 AM,66.9,27.0,22,30.12,10.0,SE,9.2,-,N/A,,Clear,130,2012-12-10 16:53:00
9:53 AM,70.0,27.0,20,30.12,10.0,SE,6.9,-,N/A,,Clear,140,2012-12-10 17:53:00
10:53 AM,73.0,28.0,19,30.11,10.0,Calm,Calm,-,N/A,,Clear,0,2012-12-10 18:53:00
11:53 AM,73.9,27.0,18,30.08,10.0,NW,3.5,-,N/A,,Clear,320,2012-12-10 19:53:00
12:53 PM,73.9,37.0,26,30.06,10.0,WNW,8.1,-,N/A,,Clear,290,2012-12-10 20:53:00
1:53 PM,72.0,30.9,22,30.05,10.0,NW,6.9,-,N/A,,Clear,310,2012-12-10 21:53:00
2:53 PM,70.0,32.0,25,30.05,10.0,WNW,5.8,-,N/A,,Clear,290,2012-12-10 22:53:00
3:53 PM,68.0,39.0,35,30.05,10.0,West,6.9,-,N/A,,Clear,280,2012-12-10 23:53:00
4:30 PM,64.4,39.2,40,30.05,10.0,SSW,66.7,84.0,N/A,,Squalls,210,2012-12-11 00:30:00
4:53 PM,63.0,41.0,45,30.05,10.0,North,-9999.0,-,N/A,,Clear,0,2012-12-11 00:53:00
5:04 PM,60.8,42.8,52,30.05,10.0,West,5.8,-,N/A,,Clear,260,2012-12-11 01:04:00
5:53 PM,59.0,52.0,78,30.06,5.0,West,5.8,-,N/A,,Haze,260,2012-12-11 01:53:00
6:53 PM,55.9,53.1,90,30.06,4.0,Calm,Calm,-,N/A,,Clear,0,2012-12-11 02:53:00
7:53 PM,52.0,48.9,89,30.07,4.0,Calm,Calm,-,N/A,,Clear,0,2012-12-11 03:53:00
8:53 PM,53.1,50.0,89,30.07,3.0,Calm,Calm,-,N/A,,Clear,0,2012-12-11 04:53:00
9:53 PM,54.0,51.1,90,30.07,4.0,Calm,Calm,-,N/A,,Clear,0,2012-12-11 05:53:00
10:53 PM,48.0,37.9,68,30.07,10.0,East,5.8,-,N/A,,Clear,80,2012-12-11 06:53:00
11:53 PM,48.9,39.0,69,30.06,10.0,ESE,5.8,-,N/A,,Clear,120,2012-12-11 07:53:00